Time;durP1;ratioP1;P1;durP2;ratioP2;P2;SDS_P1;SDS_P2;PMS_P1;PMS_P2;Temp;Humidity;BMP_temperature;BMP_pressure;BME280_temperature;BME280_humidity;BME280_pressure;Samples;Min_cycle;Max_cycle;Signal;HPM_P1;HPM_P2
2022/09/21 00:02:01;;;;;;;;;;;12.50;99.90;;;;;;4955515;29;19960;-88
2022/09/21 00:04:27;;;;;;;;;;;12.50;99.90;;;;;;4954613;29;19953;-88
2022/09/21 00:06:52;;;;;;;;;;;12.50;99.90;;;;;;4956578;29;19910;-89
2022/09/21 00:09:18;;;;;;;;;;;12.50;99.90;;;;;;4955835;29;19913;-88
2022/09/21 00:11:43;;;;;;;;;;;12.50;99.90;;;;;;4955822;28;19910;-89
2022/09/21 00:14:11;;;;;;;;;;;12.50;99.90;;;;;;4954641;29;19918;-89
2022/09/21 00:16:37;;;;;;;;;;;12.60;99.90;;;;;;4955214;29;19977;-89
2022/09/21 00:19:02;;;;;;;;;;;12.60;99.90;;;;;;4938615;29;19911;-89
2022/09/21 00:21:28;;;;;;;;;;;12.60;99.90;;;;;;4955958;29;19928;-89
2022/09/21 00:23:54;;;;;;;;;;;12.60;99.90;;;;;;4954498;29;19906;-89
2022/09/21 00:26:20;;;;;;;;;;;12.60;99.90;;;;;;4954493;29;19906;-88
2022/09/21 00:28:46;;;;;;;;;;;12.60;99.90;;;;;;4954625;29;19921;-90
2022/09/21 00:31:13;;;;;;;;;;;12.50;99.90;;;;;;4954266;29;20407;-88
2022/09/21 00:33:39;;;;;;;;;;;12.50;99.90;;;;;;4938330;29;19922;-89
2022/09/21 00:36:06;;;;;;;;;;;12.50;99.90;;;;;;4955581;29;20001;-89
2022/09/21 00:38:32;;;;;;;;;;;12.50;99.90;;;;;;4955558;29;19907;-88
2022/09/21 00:40:57;;;;;;;;;;;12.50;99.90;;;;;;4938291;29;20041;-89
2022/09/21 00:43:23;;;;;;;;;;;12.50;99.90;;;;;;4955464;29;19985;-89
2022/09/21 00:45:49;;;;;;;;;;;12.50;99.90;;;;;;4955506;29;19930;-90
2022/09/21 00:48:15;;;;;;;;;;;12.50;99.90;;;;;;4940822;29;19907;-89
2022/09/21 00:50:45;;;;;;;;;;;12.50;99.90;;;;;;4938506;29;19913;-89
2022/09/21 00:53:11;;;;;;;;;;;12.40;99.90;;;;;;4939497;29;19918;-89
2022/09/21 00:55:40;;;;;;;;;;;12.40;99.90;;;;;;4958087;29;19911;-89
2022/09/21 00:58:08;;;;;;;;;;;12.40;99.90;;;;;;4941672;29;19920;-89
2022/09/21 01:00:35;;;;;;;;;;;12.40;99.90;;;;;;4941618;29;19911;-88
2022/09/21 01:03:01;;;;;;;;;;;12.40;99.90;;;;;;4958788;29;19912;-89
2022/09/21 01:05:27;;;;;;;;;;;12.40;99.90;;;;;;4941930;29;19910;-89
2022/09/21 01:07:53;;;;;;;;;;;12.30;99.90;;;;;;4941645;29;20086;-88
2022/09/21 01:10:19;;;;;;;;;;;12.30;99.90;;;;;;4958477;29;19929;-88
2022/09/21 01:13:00;;;;;;;;;;;12.30;99.90;;;;;;4957177;29;20567;-89
2022/09/21 01:15:45;;;;;;;;;;;12.20;99.90;;;;;;4941246;29;19914;-88
2022/09/21 01:18:34;;;;;;;;;;;12.30;99.90;;;;;;4957231;29;19906;-89
2022/09/21 01:21:11;;;;;;;;;;;12.20;99.90;;;;;;4941568;29;19953;-89
2022/09/21 01:23:37;;;;;;;;;;;12.20;99.90;;;;;;4957407;29;20372;-90
2022/09/21 01:26:12;;;;;;;;;;;12.20;99.90;;;;;;4957039;29;19957;-89
2022/09/21 01:28:56;;;;;;;;;;;12.20;99.90;;;;;;4956992;29;19910;-90
2022/09/21 01:31:24;;;;;;;;;;;12.20;99.90;;;;;;4958075;29;20252;-89
2022/09/21 01:33:56;;;;;;;;;;;12.20;99.90;;;;;;4956689;28;19930;-87
2022/09/21 01:36:24;;;;;;;;;;;12.10;99.90;;;;;;4940691;29;19913;-88
2022/09/21 01:38:53;;;;;;;;;;;12.10;99.90;;;;;;4940548;29;19911;-88
2022/09/21 01:41:21;;;;;;;;;;;12.10;99.90;;;;;;4940543;29;19997;-89
2022/09/21 01:43:50;;;;;;;;;;;12.10;99.90;;;;;;4957411;29;19954;-89
2022/09/21 01:46:18;;;;;;;;;;;12.10;99.90;;;;;;4957464;29;20301;-88
2022/09/21 01:48:45;;;;;;;;;;;12.10;99.90;;;;;;4940873;29;19932;-89
2022/09/21 01:51:13;;;;;;;;;;;12.10;99.90;;;;;;4940747;29;19910;-89
2022/09/21 01:53:46;;;;;;;;;;;12.10;99.90;;;;;;4941012;29;19915;-89
2022/09/21 01:56:11;;;;;;;;;;;12.10;99.90;;;;;;4941292;29;20009;-87
2022/09/21 01:58:56;;;;;;;;;;;12.10;99.90;;;;;;4956913;29;20307;-89
2022/09/21 02:01:23;;;;;;;;;;;12.10;99.90;;;;;;4956620;29;19910;-89
2022/09/21 02:04:12;;;;;;;;;;;12.10;99.90;;;;;;4940403;29;20025;-88
2022/09/21 02:06:38;;;;;;;;;;;12.00;99.90;;;;;;4930109;29;20370;-89
2022/09/21 02:09:04;;;;;;;;;;;12.00;99.90;;;;;;4940174;29;19911;-88
2022/09/21 02:11:30;;;;;;;;;;;12.00;99.90;;;;;;4956169;28;20319;-89
2022/09/21 02:13:56;;;;;;;;;;;12.00;99.90;;;;;;4959828;29;19922;-88
2022/09/21 02:16:30;;;;;;;;;;;11.90;99.90;;;;;;4960894;29;19918;-89
2022/09/21 02:19:09;;;;;;;;;;;11.90;99.90;;;;;;4957259;29;19906;-88
2022/09/21 02:21:54;;;;;;;;;;;11.90;99.90;;;;;;4955906;29;19906;-88
2022/09/21 02:24:24;;;;;;;;;;;11.80;99.90;;;;;;4956983;29;19910;-88
2022/09/21 02:26:54;;;;;;;;;;;11.80;99.90;;;;;;4955816;29;20388;-88
2022/09/21 02:29:23;;;;;;;;;;;11.80;99.90;;;;;;4955496;29;19934;-88
2022/09/21 02:32:07;;;;;;;;;;;11.80;99.90;;;;;;4940125;29;19930;-89
2022/09/21 02:34:44;;;;;;;;;;;11.70;99.90;;;;;;4955823;29;19922;-87
2022/09/21 02:37:10;;;;;;;;;;;11.70;99.90;;;;;;4939926;29;19908;-89
2022/09/21 02:39:44;;;;;;;;;;;11.70;99.90;;;;;;4955795;29;19953;-88
2022/09/21 02:42:16;;;;;;;;;;;11.70;99.90;;;;;;4957142;29;19910;-88
2022/09/21 02:44:51;;;;;;;;;;;11.70;99.90;;;;;;4939542;29;19918;-88
2022/09/21 02:47:26;;;;;;;;;;;11.60;99.90;;;;;;4940693;29;19968;-89
2022/09/21 02:49:53;;;;;;;;;;;11.50;99.90;;;;;;4958253;29;19910;-88
2022/09/21 02:52:20;;;;;;;;;;;11.50;99.90;;;;;;4940776;29;19906;-88
2022/09/21 02:54:48;;;;;;;;;;;11.50;99.90;;;;;;4942511;29;20355;-88
2022/09/21 02:57:15;;;;;;;;;;;11.40;99.90;;;;;;4945898;29;19911;-89
2022/09/21 02:59:41;;;;;;;;;;;11.40;99.90;;;;;;4946366;29;19950;-88
2022/09/21 03:02:08;;;;;;;;;;;11.30;99.90;;;;;;4972346;29;20819;-88
2022/09/21 03:04:34;;;;;;;;;;;11.30;99.90;;;;;;4979229;28;19937;-87
2022/09/21 03:06:59;;;;;;;;;;;11.20;99.90;;;;;;4978441;28;19899;-88
2022/09/21 03:09:25;;;;;;;;;;;11.20;99.90;;;;;;4958001;29;19993;-89
2022/09/21 03:11:50;;;;;;;;;;;11.10;99.90;;;;;;4955193;28;19913;-88
2022/09/21 03:14:17;;;;;;;;;;;11.00;99.90;;;;;;4955311;28;19925;-88
2022/09/21 03:16:42;;;;;;;;;;;11.00;99.90;;;;;;4955306;28;19914;-88
2022/09/21 03:19:08;;;;;;;;;;;11.00;99.90;;;;;;4956162;29;19911;-88
2022/09/21 03:21:34;;;;;;;;;;;11.00;99.90;;;;;;4955176;29;19911;-88
2022/09/21 03:24:00;;;;;;;;;;;10.90;99.90;;;;;;4954999;29;19961;-89
2022/09/21 03:26:25;;;;;;;;;;;10.90;99.90;;;;;;4954717;29;19907;-88
2022/09/21 03:28:53;;;;;;;;;;;10.90;99.90;;;;;;4955389;29;19906;-88
2022/09/21 03:31:19;;;;;;;;;;;10.90;99.90;;;;;;4938824;29;19918;-88
2022/09/21 03:33:44;;;;;;;;;;;10.90;99.90;;;;;;4954794;29;19914;-87
2022/09/21 03:36:10;;;;;;;;;;;10.90;99.90;;;;;;4939012;29;19945;-89
2022/09/21 03:38:36;;;;;;;;;;;10.90;99.90;;;;;;4954643;29;19915;-89
2022/09/21 03:41:02;;;;;;;;;;;10.90;99.90;;;;;;4938545;29;20402;-89
2022/09/21 03:43:27;;;;;;;;;;;10.90;99.90;;;;;;4954386;29;19957;-89
2022/09/21 03:45:53;;;;;;;;;;;10.90;99.90;;;;;;4955625;29;20022;-89
2022/09/21 03:48:18;;;;;;;;;;;10.80;99.90;;;;;;4955739;29;19996;-89
2022/09/21 03:50:44;;;;;;;;;;;10.80;99.90;;;;;;4954410;29;19966;-88
2022/09/21 03:53:10;;;;;;;;;;;10.80;99.90;;;;;;4954056;29;19945;-88
2022/09/21 03:55:36;;;;;;;;;;;10.80;99.90;;;;;;4953864;29;19907;-88
2022/09/21 03:58:01;;;;;;;;;;;10.80;99.90;;;;;;4953885;29;20507;-87
2022/09/21 04:00:27;;;;;;;;;;;10.80;99.90;;;;;;4953219;29;19989;-88
2022/09/21 04:02:53;;;;;;;;;;;10.70;99.90;;;;;;4953768;29;19918;-87
2022/09/21 04:05:19;;;;;;;;;;;10.70;99.90;;;;;;4954121;29;19910;-90
2022/09/21 04:07:45;;;;;;;;;;;10.80;99.90;;;;;;4953782;28;19907;-90
2022/09/21 04:10:11;;;;;;;;;;;10.80;99.90;;;;;;4953926;29;20279;-91
2022/09/21 04:12:37;;;;;;;;;;;10.80;99.90;;;;;;4954007;28;19906;-90
2022/09/21 04:15:06;;;;;;;;;;;10.80;99.90;;;;;;4953550;29;19937;-89
2022/09/21 04:17:32;;;;;;;;;;;10.80;99.90;;;;;;4938338;29;20355;-90
2022/09/21 04:19:58;;;;;;;;;;;10.80;99.90;;;;;;4938309;29;19910;-89
2022/09/21 04:22:23;;;;;;;;;;;10.80;99.90;;;;;;4954631;29;19914;-90
2022/09/21 04:24:49;;;;;;;;;;;10.80;99.90;;;;;;4953358;29;19917;-88
2022/09/21 04:27:15;;;;;;;;;;;10.70;99.90;;;;;;4953368;28;19914;-89
2022/09/21 04:29:41;;;;;;;;;;;10.70;99.90;;;;;;4958598;29;19953;-91
2022/09/21 04:32:06;;;;;;;;;;;10.60;99.90;;;;;;4957369;29;20390;-89
2022/09/21 04:34:32;;;;;;;;;;;10.60;99.90;;;;;;4957473;29;19918;-88
2022/09/21 04:36:58;;;;;;;;;;;10.60;99.90;;;;;;4957275;29;20222;-89
2022/09/21 04:39:24;;;;;;;;;;;10.60;99.90;;;;;;4957146;29;19907;-90
2022/09/21 04:41:50;;;;;;;;;;;10.60;99.90;;;;;;4957086;29;19911;-89
2022/09/21 04:44:18;;;;;;;;;;;10.60;99.90;;;;;;4957119;29;19922;-89
2022/09/21 04:46:43;;;;;;;;;;;10.60;99.90;;;;;;4957145;29;20467;-90
2022/09/21 04:49:09;;;;;;;;;;;10.60;99.90;;;;;;4957326;29;19965;-90
2022/09/21 04:51:35;;;;;;;;;;;10.60;99.90;;;;;;4960916;29;19910;-89
2022/09/21 04:54:01;;;;;;;;;;;10.60;99.90;;;;;;4960407;29;19953;-88
2022/09/21 04:56:27;;;;;;;;;;;10.60;99.90;;;;;;4958789;29;20375;-88
2022/09/21 04:58:52;;;;;;;;;;;10.60;99.90;;;;;;4958316;29;20347;-88
2022/09/21 05:01:18;;;;;;;;;;;10.60;99.90;;;;;;4957208;29;19956;-89
2022/09/21 05:03:43;;;;;;;;;;;10.60;99.90;;;;;;4956930;29;19961;-88
2022/09/21 05:06:12;;;;;;;;;;;10.60;99.90;;;;;;4957146;29;19907;-88
2022/09/21 05:11:22;;;;;;;;;;;10.50;99.90;;;;;;4958645;29;19913;-88
2022/09/21 05:13:47;;;;;;;;;;;10.60;99.90;;;;;;4958128;28;19989;-88
2022/09/21 05:16:13;;;;;;;;;;;10.60;99.90;;;;;;4958107;29;19906;-89
2022/09/21 05:18:39;;;;;;;;;;;10.60;99.90;;;;;;4957145;29;19907;-88
2022/09/21 05:21:06;;;;;;;;;;;10.60;99.90;;;;;;4956865;28;20418;-89
2022/09/21 05:23:32;;;;;;;;;;;10.60;99.90;;;;;;4957529;29;19907;-89
2022/09/21 05:25:58;;;;;;;;;;;10.60;99.90;;;;;;4957031;29;20519;-89
2022/09/21 05:28:24;;;;;;;;;;;10.60;99.90;;;;;;4956606;29;19969;-89
2022/09/21 05:31:09;;;;;;;;;;;10.60;99.90;;;;;;4956966;29;19918;-88
2022/09/21 05:33:36;;;;;;;;;;;10.60;99.90;;;;;;4923650;29;20382;-88
2022/09/21 05:36:21;;;;;;;;;;;10.60;99.90;;;;;;4957547;29;20376;-88
2022/09/21 05:38:46;;;;;;;;;;;10.60;99.90;;;;;;4956220;28;20001;-89
2022/09/21 05:41:12;;;;;;;;;;;10.60;99.90;;;;;;4955290;29;19989;-87
2022/09/21 05:43:37;;;;;;;;;;;10.60;99.90;;;;;;4940306;29;20384;-89
2022/09/21 05:46:20;;;;;;;;;;;10.60;99.90;;;;;;4956191;29;19906;-89
2022/09/21 05:49:06;;;;;;;;;;;10.60;99.90;;;;;;4957814;29;20159;-88
2022/09/21 05:51:42;;;;;;;;;;;10.50;99.90;;;;;;4927051;29;19969;-87
2022/09/21 05:54:13;;;;;;;;;;;10.60;99.90;;;;;;4959334;29;19961;-88
2022/09/21 05:56:41;;;;;;;;;;;10.60;99.90;;;;;;4958237;29;19910;-89
2022/09/21 05:59:07;;;;;;;;;;;10.60;99.90;;;;;;4958001;29;19907;-89
2022/09/21 06:01:44;;;;;;;;;;;10.60;99.90;;;;;;4957379;29;19925;-89
2022/09/21 06:04:12;;;;;;;;;;;10.50;99.90;;;;;;4956876;29;19910;-89
2022/09/21 06:06:38;;;;;;;;;;;10.50;99.90;;;;;;4956223;29;20016;-89
2022/09/21 06:09:04;;;;;;;;;;;10.60;99.90;;;;;;4957627;29;19946;-89
2022/09/21 06:11:29;;;;;;;;;;;10.60;99.90;;;;;;4957566;29;19906;-90
2022/09/21 06:13:55;;;;;;;;;;;10.60;99.90;;;;;;4961223;28;20013;-89
2022/09/21 06:16:21;;;;;;;;;;;10.60;99.90;;;;;;4961289;29;19906;-90
2022/09/21 06:18:46;;;;;;;;;;;10.50;99.90;;;;;;4956000;28;19914;-90
2022/09/21 06:21:12;;;;;;;;;;;10.60;99.90;;;;;;4954968;28;19910;-88
2022/09/21 06:23:37;;;;;;;;;;;10.50;99.90;;;;;;4956031;29;20001;-90
2022/09/21 06:26:03;;;;;;;;;;;10.60;99.90;;;;;;4955174;29;19906;-89
2022/09/21 06:28:29;;;;;;;;;;;10.60;99.90;;;;;;4954789;28;19906;-90
2022/09/21 06:30:55;;;;;;;;;;;10.60;99.90;;;;;;4955934;29;19906;-90
2022/09/21 06:33:22;;;;;;;;;;;10.60;99.90;;;;;;4954687;29;19945;-90
2022/09/21 06:35:52;;;;;;;;;;;10.60;99.90;;;;;;4954966;28;19907;-89
2022/09/21 06:38:18;;;;;;;;;;;10.60;99.90;;;;;;4957071;29;20427;-88
2022/09/21 06:40:43;;;;;;;;;;;10.70;99.90;;;;;;4955560;29;19906;-90
2022/09/21 06:43:09;;;;;;;;;;;10.60;99.90;;;;;;4955717;29;19918;-90
2022/09/21 06:45:34;;;;;;;;;;;10.60;99.90;;;;;;4956675;29;20337;-90
2022/09/21 06:48:00;;;;;;;;;;;10.60;99.90;;;;;;4956106;29;19964;-91
2022/09/21 06:50:25;;;;;;;;;;;10.70;99.90;;;;;;4955636;28;19914;-87
2022/09/21 06:52:51;;;;;;;;;;;10.60;99.90;;;;;;4940668;29;19921;-88
2022/09/21 06:55:17;;;;;;;;;;;10.70;99.90;;;;;;4941493;29;19926;-88
2022/09/21 06:57:43;;;;;;;;;;;10.70;99.90;;;;;;4957554;29;20348;-91
2022/09/21 07:00:10;;;;;;;;;;;10.70;99.90;;;;;;4956257;29;20331;-90
2022/09/21 07:02:36;;;;;;;;;;;10.70;99.90;;;;;;4954669;29;19957;-91
2022/09/21 07:05:01;;;;;;;;;;;10.70;99.90;;;;;;4955465;29;19938;-91
2022/09/21 07:07:29;;;;;;;;;;;10.70;99.90;;;;;;4954248;29;19914;-91
2022/09/21 07:09:54;;;;;;;;;;;10.70;99.90;;;;;;4940006;29;20000;-89
2022/09/21 07:12:20;;;;;;;;;;;10.70;99.90;;;;;;4956498;28;19953;-91
2022/09/21 07:14:46;;;;;;;;;;;10.80;99.90;;;;;;4938965;29;19922;-91
2022/09/21 07:17:13;;;;;;;;;;;10.80;99.90;;;;;;4939265;29;19911;-90
2022/09/21 07:19:39;;;;;;;;;;;10.80;99.90;;;;;;4939135;29;19910;-91
2022/09/21 07:22:04;;;;;;;;;;;10.80;99.90;;;;;;4956152;29;20360;-90
2022/09/21 07:24:30;;;;;;;;;;;10.80;99.90;;;;;;4956471;29;19906;-88
2022/09/21 07:26:56;;;;;;;;;;;10.80;99.90;;;;;;4959392;29;20073;-90
2022/09/21 07:29:21;;;;;;;;;;;10.90;99.90;;;;;;4954633;29;19918;-90
2022/09/21 07:31:47;;;;;;;;;;;10.90;99.90;;;;;;4970289;29;19930;-88
2022/09/21 07:34:13;;;;;;;;;;;10.90;99.90;;;;;;4971700;29;19919;-88
2022/09/21 07:36:38;;;;;;;;;;;10.90;99.90;;;;;;4971095;29;19907;-89
2022/09/21 07:39:04;;;;;;;;;;;11.00;99.90;;;;;;4975463;28;19915;-89
2022/09/21 07:41:29;;;;;;;;;;;11.00;99.90;;;;;;4969107;29;20256;-90
2022/09/21 07:43:55;;;;;;;;;;;11.00;99.90;;;;;;4956182;29;19926;-90
2022/09/21 07:46:21;;;;;;;;;;;11.00;99.90;;;;;;4955650;29;19913;-87
2022/09/21 07:48:46;;;;;;;;;;;11.10;99.90;;;;;;4955090;29;19914;-90
2022/09/21 07:51:13;;;;;;;;;;;11.10;99.90;;;;;;4954260;29;19918;-90
2022/09/21 07:53:40;;;;;;;;;;;11.20;99.90;;;;;;4946968;29;19918;-90
2022/09/21 07:56:07;;;;;;;;;;;11.20;99.90;;;;;;4946011;28;20252;-90
2022/09/21 08:01:18;;;;;;;;;;;11.40;99.90;;;;;;4950096;28;19953;-89
2022/09/21 08:03:43;;;;;;;;;;;11.50;99.90;;;;;;4949694;28;19953;-89
2022/09/21 08:06:09;;;;;;;;;;;11.60;99.90;;;;;;4949056;29;19962;-88
2022/09/21 08:08:35;;;;;;;;;;;11.70;99.90;;;;;;4957498;28;19910;-89
2022/09/21 08:11:02;;;;;;;;;;;11.70;99.90;;;;;;4958471;29;19997;-87
2022/09/21 08:13:27;;;;;;;;;;;11.80;99.90;;;;;;4940941;29;19954;-89
2022/09/21 08:15:56;;;;;;;;;;;11.80;99.90;;;;;;4957002;28;20375;-88
2022/09/21 08:18:22;;;;;;;;;;;11.90;99.90;;;;;;4961071;29;19918;-89
2022/09/21 08:20:52;;;;;;;;;;;12.00;99.90;;;;;;4961194;28;20279;-90
2022/09/21 08:23:17;;;;;;;;;;;12.00;99.90;;;;;;4958982;28;19918;-88
2022/09/21 08:25:43;;;;;;;;;;;12.20;99.90;;;;;;4960627;28;19910;-89
2022/09/21 08:28:08;;;;;;;;;;;12.20;99.90;;;;;;4955590;29;19906;-89
2022/09/21 08:30:36;;;;;;;;;;;12.30;99.90;;;;;;4958975;28;19953;-89
2022/09/21 08:33:02;;;;;;;;;;;12.40;99.90;;;;;;4959481;28;19910;-88
2022/09/21 08:35:27;;;;;;;;;;;12.50;99.90;;;;;;4958671;29;19914;-87
2022/09/21 08:37:53;;;;;;;;;;;12.50;99.90;;;;;;4955485;29;20009;-90
2022/09/21 08:40:19;;;;;;;;;;;12.60;99.90;;;;;;4958018;28;19942;-89
2022/09/21 08:42:51;;;;;;;;;;;12.70;99.90;;;;;;4956108;29;19936;-90
2022/09/21 08:45:18;;;;;;;;;;;12.80;99.90;;;;;;4943127;29;19918;-90
2022/09/21 08:47:47;;;;;;;;;;;12.90;99.90;;;;;;4959323;28;19906;-89
2022/09/21 08:50:32;;;;;;;;;;;13.00;99.90;;;;;;4960647;28;19926;-90
2022/09/21 08:53:03;;;;;;;;;;;13.10;99.90;;;;;;4960667;28;19906;-88
2022/09/21 08:55:28;;;;;;;;;;;13.20;99.90;;;;;;4960246;29;19918;-90
2022/09/21 08:57:54;;;;;;;;;;;13.30;99.90;;;;;;4964810;29;19961;-89
2022/09/21 09:00:19;;;;;;;;;;;13.50;99.90;;;;;;4963538;29;19907;-90
2022/09/21 09:02:51;;;;;;;;;;;13.60;99.90;;;;;;4962063;28;19916;-90
2022/09/21 09:05:20;;;;;;;;;;;13.70;99.90;;;;;;4966099;28;19915;-90
2022/09/21 09:08:05;;;;;;;;;;;13.80;99.90;;;;;;4960425;28;19992;-90
2022/09/21 09:10:49;;;;;;;;;;;14.00;99.90;;;;;;4943419;29;19993;-90
2022/09/21 09:13:38;;;;;;;;;;;14.20;99.90;;;;;;4960304;29;19917;-91
2022/09/21 09:16:04;;;;;;;;;;;14.30;99.90;;;;;;4957803;28;20356;-90
2022/09/21 09:18:44;;;;;;;;;;;14.60;99.90;;;;;;4957095;29;19913;-90
2022/09/21 09:21:21;;;;;;;;;;;14.70;99.90;;;;;;4958332;29;19907;-89
2022/09/21 09:23:55;;;;;;;;;;;14.90;99.90;;;;;;4957325;29;19914;-90
2022/09/21 09:26:25;;;;;;;;;;;15.00;99.90;;;;;;4956702;29;19906;-91
2022/09/21 09:28:53;;;;;;;;;;;15.20;99.90;;;;;;4957317;29;19949;-90
2022/09/21 09:31:38;;;;;;;;;;;15.30;99.90;;;;;;4956976;29;19907;-91
2022/09/21 09:34:11;;;;;;;;;;;15.40;99.90;;;;;;4963023;28;19918;-89
2022/09/21 09:36:38;;;;;;;;;;;15.60;99.90;;;;;;4940683;29;19910;-90
2022/09/21 09:39:11;;;;;;;;;;;15.70;99.90;;;;;;4956828;28;20005;-90
2022/09/21 09:41:56;;;;;;;;;;;15.90;99.90;;;;;;4959878;28;19913;-89
2022/09/21 09:44:37;;;;;;;;;;;16.00;99.90;;;;;;4973053;28;19922;-89
2022/09/21 09:47:27;;;;;;;;;;;16.10;99.90;;;;;;4956131;29;20391;-89
2022/09/21 09:50:07;;;;;;;;;;;16.40;99.90;;;;;;4957424;29;19914;-89
2022/09/21 09:52:33;;;;;;;;;;;16.60;99.90;;;;;;4956241;29;20364;-90
2022/09/21 09:54:59;;;;;;;;;;;16.80;99.90;;;;;;4956244;29;19921;-91
2022/09/21 09:57:32;;;;;;;;;;;17.00;99.90;;;;;;4956939;29;20364;-90
2022/09/21 10:00:02;;;;;;;;;;;17.10;99.90;;;;;;4976430;28;19933;-88
2022/09/21 10:02:28;;;;;;;;;;;17.10;99.90;;;;;;4969162;28;20312;-90
2022/09/21 10:04:53;;;;;;;;;;;17.10;99.90;;;;;;4958173;28;20412;-88
2022/09/21 10:07:19;;;;;;;;;;;17.20;99.90;;;;;;4956152;29;19914;-90
2022/09/21 10:09:45;;;;;;;;;;;17.20;99.90;;;;;;4955504;29;19911;-91
2022/09/21 10:12:29;;;;;;;;;;;17.20;99.90;;;;;;4955602;28;19907;-91
2022/09/21 10:14:55;;;;;;;;;;;17.30;99.90;;;;;;4951098;29;19918;-91
2022/09/21 10:17:23;;;;;;;;;;;17.40;99.90;;;;;;4937309;29;19907;-90
2022/09/21 10:19:57;;;;;;;;;;;17.50;99.20;;;;;;4937583;29;19910;-90
2022/09/21 10:22:22;;;;;;;;;;;17.60;98.60;;;;;;4937202;29;19911;-89
2022/09/21 10:24:50;;;;;;;;;;;17.80;97.80;;;;;;4937040;29;19911;-90
2022/09/21 10:27:19;;;;;;;;;;;18.10;96.50;;;;;;4935920;29;19989;-88
2022/09/21 10:29:46;;;;;;;;;;;18.40;95.60;;;;;;4936855;29;19907;-90
2022/09/21 10:32:12;;;;;;;;;;;18.70;93.80;;;;;;4936519;29;19914;-90
2022/09/21 10:34:38;;;;;;;;;;;18.90;90.90;;;;;;4937023;29;19915;-91
2022/09/21 10:37:25;;;;;;;;;;;19.00;90.50;;;;;;4937179;29;19911;-91
2022/09/21 10:39:50;;;;;;;;;;;19.30;90.20;;;;;;4943259;29;19997;-90
2022/09/21 10:42:18;;;;;;;;;;;19.50;88.20;;;;;;4936893;29;19946;-90
2022/09/21 10:44:45;;;;;;;;;;;19.50;87.50;;;;;;4936460;29;20313;-90
2022/09/21 10:47:13;;;;;;;;;;;19.50;85.90;;;;;;4936161;29;19954;-90
2022/09/21 10:49:42;;;;;;;;;;;19.30;85.30;;;;;;4936556;29;19906;-89
2022/09/21 10:52:07;;;;;;;;;;;19.20;85.00;;;;;;4936755;29;20067;-89
2022/09/21 10:54:33;;;;;;;;;;;19.10;85.00;;;;;;4936661;29;19945;-89
2022/09/21 10:57:05;;;;;;;;;;;19.10;85.30;;;;;;4935807;29;19996;-89
2022/09/21 10:59:32;;;;;;;;;;;19.00;84.10;;;;;;4935752;29;19954;-88
2022/09/21 11:01:58;;;;;;;;;;;18.90;82.90;;;;;;4936593;29;19918;-88
2022/09/21 11:04:39;;;;;;;;;;;18.90;82.60;;;;;;4936715;29;19965;-88
2022/09/21 11:07:08;;;;;;;;;;;19.00;82.30;;;;;;4936000;29;19961;-89
2022/09/21 11:09:38;;;;;;;;;;;18.90;81.30;;;;;;4935979;29;19915;-89
2022/09/21 11:12:17;;;;;;;;;;;18.90;81.60;;;;;;4935843;29;19913;-90
2022/09/21 11:14:53;;;;;;;;;;;18.90;81.30;;;;;;4947965;28;19914;-88
2022/09/21 11:17:26;;;;;;;;;;;18.80;81.10;;;;;;4951491;28;19934;-88
2022/09/21 11:20:02;;;;;;;;;;;18.70;80.90;;;;;;4953969;28;19917;-88
2022/09/21 11:22:37;;;;;;;;;;;18.60;80.20;;;;;;4947563;29;19944;-88
2022/09/21 11:25:22;;;;;;;;;;;18.60;80.50;;;;;;4935453;29;20589;-89
2022/09/21 11:27:52;;;;;;;;;;;18.60;80.50;;;;;;4935041;29;20013;-88
2022/09/21 11:30:18;;;;;;;;;;;18.60;80.40;;;;;;4935218;29;19915;-89
2022/09/21 11:32:56;;;;;;;;;;;18.60;80.40;;;;;;4935648;29;20528;-89
2022/09/21 11:35:25;;;;;;;;;;;18.70;80.40;;;;;;4935464;29;19915;-89
2022/09/21 11:37:51;;;;;;;;;;;18.80;80.30;;;;;;4945371;28;19973;-88
2022/09/21 11:40:16;;;;;;;;;;;18.80;79.60;;;;;;4956401;29;19946;-90
2022/09/21 11:42:45;;;;;;;;;;;18.80;78.80;;;;;;4959784;29;20016;-89
2022/09/21 11:45:33;;;;;;;;;;;18.70;77.70;;;;;;4957103;29;19910;-89
2022/09/21 11:48:09;;;;;;;;;;;18.70;77.60;;;;;;4954949;29;19906;-91
2022/09/21 11:50:37;;;;;;;;;;;18.60;77.60;;;;;;4954866;29;19954;-89
2022/09/21 11:53:15;;;;;;;;;;;18.60;78.80;;;;;;4954902;29;19911;-90
2022/09/21 11:56:00;;;;;;;;;;;18.60;78.20;;;;;;4955833;29;19915;-90
2022/09/21 11:58:39;;;;;;;;;;;18.60;78.20;;;;;;4957892;29;19960;-88
2022/09/21 12:01:20;;;;;;;;;;;18.60;78.00;;;;;;4958460;29;20395;-88
2022/09/21 12:03:45;;;;;;;;;;;18.60;77.50;;;;;;4964282;29;19969;-89
2022/09/21 12:06:28;;;;;;;;;;;18.50;77.40;;;;;;4969756;29;19906;-88
2022/09/21 12:09:03;;;;;;;;;;;18.50;77.20;;;;;;4960097;29;19906;-88
2022/09/21 12:11:42;;;;;;;;;;;18.60;77.60;;;;;;4971485;29;19917;-88
2022/09/21 12:14:08;;;;;;;;;;;18.70;77.70;;;;;;4955173;28;19910;-88
2022/09/21 12:16:47;;;;;;;;;;;18.70;77.10;;;;;;4954642;29;19973;-88
2022/09/21 12:19:23;;;;;;;;;;;18.60;76.60;;;;;;4954362;29;19917;-88
2022/09/21 12:21:52;;;;;;;;;;;18.60;76.80;;;;;;4937252;29;19918;-88
2022/09/21 12:24:25;;;;;;;;;;;18.60;77.00;;;;;;4953625;28;19910;-88
2022/09/21 12:26:54;;;;;;;;;;;18.70;77.20;;;;;;4930822;29;19937;-89
2022/09/21 12:29:46;;;;;;;;;;;18.70;77.10;;;;;;4943482;28;19913;-89
2022/09/21 12:32:23;;;;;;;;;;;18.60;75.90;;;;;;4935556;29;20057;-88
2022/09/21 12:34:52;;;;;;;;;;;18.60;75.50;;;;;;4954131;29;19918;-89
2022/09/21 12:37:22;;;;;;;;;;;18.50;75.20;;;;;;4952973;29;20299;-87
2022/09/21 12:39:52;;;;;;;;;;;18.50;75.30;;;;;;4953374;29;19918;-88
2022/09/21 12:42:27;;;;;;;;;;;18.50;75.50;;;;;;4937592;29;20356;-89
2022/09/21 12:44:59;;;;;;;;;;;18.60;75.40;;;;;;4944965;29;19923;-89
2022/09/21 12:47:42;;;;;;;;;;;18.90;75.20;;;;;;4949669;29;20092;-88
2022/09/21 12:50:19;;;;;;;;;;;18.90;74.70;;;;;;4955885;28;20265;-88
2022/09/21 12:52:45;;;;;;;;;;;19.20;74.80;;;;;;4956576;29;19915;-88
2022/09/21 12:55:31;;;;;;;;;;;19.30;74.40;;;;;;4957350;29;19914;-88
2022/09/21 12:58:03;;;;;;;;;;;19.30;74.50;;;;;;4957302;29;20311;-88
2022/09/21 13:00:33;;;;;;;;;;;19.30;74.40;;;;;;4958105;29;19906;-88
2022/09/21 13:02:58;;;;;;;;;;;19.20;74.70;;;;;;4958293;29;19910;-88
2022/09/21 13:05:33;;;;;;;;;;;19.10;75.30;;;;;;4957073;29;20364;-88
2022/09/21 13:08:03;;;;;;;;;;;19.10;75.70;;;;;;4956921;29;19913;-88
2022/09/21 13:10:39;;;;;;;;;;;19.10;76.00;;;;;;4957123;29;20351;-89
2022/09/21 13:13:07;;;;;;;;;;;19.10;76.00;;;;;;4956708;29;19910;-88
2022/09/21 13:15:46;;;;;;;;;;;18.90;76.20;;;;;;4957012;29;19918;-88
2022/09/21 13:18:17;;;;;;;;;;;18.90;76.70;;;;;;4956300;29;19960;-88
2022/09/21 13:20:43;;;;;;;;;;;18.90;77.20;;;;;;4956087;29;19914;-88
2022/09/21 13:23:16;;;;;;;;;;;18.80;77.30;;;;;;4957487;29;19910;-89
2022/09/21 13:25:47;;;;;;;;;;;18.80;77.40;;;;;;4957197;29;19914;-87
2022/09/21 13:28:15;;;;;;;;;;;18.80;77.30;;;;;;4956688;29;20360;-88
2022/09/21 13:30:46;;;;;;;;;;;18.80;77.60;;;;;;4956165;29;19953;-88
2022/09/21 13:33:17;;;;;;;;;;;19.00;77.70;;;;;;4956493;29;19917;-88
2022/09/21 13:35:49;;;;;;;;;;;19.20;77.20;;;;;;4955910;29;19921;-88
2022/09/21 13:38:22;;;;;;;;;;;19.40;76.70;;;;;;4956291;29;20426;-89
2022/09/21 13:40:54;;;;;;;;;;;19.40;76.30;;;;;;4956333;29;19906;-90
2022/09/21 13:43:21;;;;;;;;;;;19.30;76.20;;;;;;4956156;29;19940;-88
2022/09/21 13:45:49;;;;;;;;;;;19.20;76.40;;;;;;4956606;29;20001;-89
2022/09/21 13:48:23;;;;;;;;;;;19.10;76.50;;;;;;4955355;28;20371;-89
2022/09/21 13:50:49;;;;;;;;;;;19.20;76.50;;;;;;4940300;29;19906;-90
2022/09/21 13:53:18;;;;;;;;;;;19.10;76.50;;;;;;4939923;29;19911;-88
2022/09/21 13:55:49;;;;;;;;;;;19.00;76.40;;;;;;4955937;29;19965;-87
2022/09/21 13:58:14;;;;;;;;;;;18.90;76.50;;;;;;4939380;29;19910;-89
2022/09/21 14:00:41;;;;;;;;;;;18.80;76.50;;;;;;4954039;28;20374;-87
2022/09/21 14:03:27;;;;;;;;;;;18.70;76.60;;;;;;4939364;29;20439;-88
2022/09/21 14:06:05;;;;;;;;;;;18.60;76.90;;;;;;4954639;29;19917;-89
2022/09/21 14:08:32;;;;;;;;;;;18.60;77.20;;;;;;4938607;29;19922;-87
2022/09/21 14:11:03;;;;;;;;;;;18.50;76.80;;;;;;4938626;29;20310;-88
2022/09/21 14:13:32;;;;;;;;;;;18.40;76.80;;;;;;4938366;29;19911;-90
2022/09/21 14:16:16;;;;;;;;;;;18.40;77.00;;;;;;4951872;29;20442;-87
2022/09/21 14:18:45;;;;;;;;;;;18.30;77.20;;;;;;4953542;29;19910;-88
2022/09/21 14:21:16;;;;;;;;;;;18.30;77.70;;;;;;4938498;29;19946;-87
2022/09/21 14:24:03;;;;;;;;;;;18.20;77.80;;;;;;4938200;29;20249;-87
2022/09/21 14:26:32;;;;;;;;;;;18.20;78.10;;;;;;4953473;29;20033;-87
2022/09/21 14:29:04;;;;;;;;;;;18.20;78.30;;;;;;4955536;29;20390;-86
2022/09/21 14:31:33;;;;;;;;;;;18.20;78.30;;;;;;4939242;29;19907;-87
2022/09/21 14:34:02;;;;;;;;;;;18.10;78.40;;;;;;4954576;29;19914;-87
2022/09/21 14:36:36;;;;;;;;;;;18.10;78.60;;;;;;4954672;29;19918;-87